sensor_id;sensor_type;location;lat;lon;timestamp;P1;durP1;ratioP1;P2;durP2;ratioP2
41255;SDS011;26989;45.524;10.938;2023-12-28T00:00:13;30.00;;;17.52;;
41255;SDS011;26989;45.524;10.938;2023-12-28T00:02:40;32.60;;;17.25;;
41255;SDS011;26989;45.524;10.938;2023-12-28T00:05:07;31.20;;;18.58;;
41255;SDS011;26989;45.524;10.938;2023-12-28T00:07:34;30.65;;;17.65;;
41255;SDS011;26989;45.524;10.938;2023-12-28T00:10:02;34.92;;;18.20;;
41255;SDS011;26989;45.524;10.938;2023-12-28T00:12:30;32.65;;;17.08;;
41255;SDS011;26989;45.524;10.938;2023-12-28T00:14:57;28.85;;;16.40;;
41255;SDS011;26989;45.524;10.938;2023-12-28T00:17:24;29.63;;;16.33;;
41255;SDS011;26989;45.524;10.938;2023-12-28T00:19:51;27.25;;;16.77;;
41255;SDS011;26989;45.524;10.938;2023-12-28T00:22:18;32.58;;;17.05;;
41255;SDS011;26989;45.524;10.938;2023-12-28T00:24:45;30.65;;;19.02;;
41255;SDS011;26989;45.524;10.938;2023-12-28T00:27:12;32.47;;;17.48;;
41255;SDS011;26989;45.524;10.938;2023-12-28T00:29:39;29.17;;;16.65;;
41255;SDS011;26989;45.524;10.938;2023-12-28T00:32:07;26.27;;;17.33;;
41255;SDS011;26989;45.524;10.938;2023-12-28T00:34:35;28.60;;;17.48;;
41255;SDS011;26989;45.524;10.938;2023-12-28T00:37:03;36.50;;;20.35;;
41255;SDS011;26989;45.524;10.938;2023-12-28T00:39:30;32.40;;;18.95;;
41255;SDS011;26989;45.524;10.938;2023-12-28T00:41:57;33.80;;;19.15;;
41255;SDS011;26989;45.524;10.938;2023-12-28T00:44:24;32.95;;;19.15;;
41255;SDS011;26989;45.524;10.938;2023-12-28T00:46:50;31.27;;;18.25;;
41255;SDS011;26989;45.524;10.938;2023-12-28T00:49:17;32.95;;;19.33;;
41255;SDS011;26989;45.524;10.938;2023-12-28T00:51:44;32.22;;;19.77;;
41255;SDS011;26989;45.524;10.938;2023-12-28T00:54:11;36.55;;;20.15;;
41255;SDS011;26989;45.524;10.938;2023-12-28T00:56:38;37.47;;;21.42;;
41255;SDS011;26989;45.524;10.938;2023-12-28T00:59:05;35.70;;;21.40;;
41255;SDS011;26989;45.524;10.938;2023-12-28T01:01:32;41.00;;;22.80;;
41255;SDS011;26989;45.524;10.938;2023-12-28T01:03:59;37.72;;;21.00;;
41255;SDS011;26989;45.524;10.938;2023-12-28T01:06:26;38.33;;;21.02;;
41255;SDS011;26989;45.524;10.938;2023-12-28T01:08:55;35.17;;;21.15;;
41255;SDS011;26989;45.524;10.938;2023-12-28T01:11:22;36.20;;;20.85;;
41255;SDS011;26989;45.524;10.938;2023-12-28T01:13:50;41.38;;;21.67;;
41255;SDS011;26989;45.524;10.938;2023-12-28T01:16:17;33.92;;;20.85;;
41255;SDS011;26989;45.524;10.938;2023-12-28T01:18:44;34.45;;;20.17;;
41255;SDS011;26989;45.524;10.938;2023-12-28T01:21:12;44.67;;;23.27;;
41255;SDS011;26989;45.524;10.938;2023-12-28T01:23:39;38.13;;;21.70;;
41255;SDS011;26989;45.524;10.938;2023-12-28T01:26:06;40.72;;;21.67;;
41255;SDS011;26989;45.524;10.938;2023-12-28T01:28:38;31.33;;;19.58;;
41255;SDS011;26989;45.524;10.938;2023-12-28T01:31:04;31.48;;;16.73;;
41255;SDS011;26989;45.524;10.938;2023-12-28T01:33:31;32.38;;;15.43;;
41255;SDS011;26989;45.524;10.938;2023-12-28T01:35:58;27.90;;;16.63;;
41255;SDS011;26989;45.524;10.938;2023-12-28T01:38:25;31.30;;;17.95;;
41255;SDS011;26989;45.524;10.938;2023-12-28T01:40:52;30.15;;;17.48;;
41255;SDS011;26989;45.524;10.938;2023-12-28T01:43:21;29.35;;;17.30;;
41255;SDS011;26989;45.524;10.938;2023-12-28T01:45:48;32.35;;;18.75;;
41255;SDS011;26989;45.524;10.938;2023-12-28T01:48:15;33.63;;;18.50;;
41255;SDS011;26989;45.524;10.938;2023-12-28T01:50:43;30.20;;;18.20;;
41255;SDS011;26989;45.524;10.938;2023-12-28T01:53:10;32.85;;;18.55;;
41255;SDS011;26989;45.524;10.938;2023-12-28T01:55:38;27.40;;;17.02;;
41255;SDS011;26989;45.524;10.938;2023-12-28T01:58:05;30.88;;;16.75;;
41255;SDS011;26989;45.524;10.938;2023-12-28T02:00:32;29.13;;;16.70;;
41255;SDS011;26989;45.524;10.938;2023-12-28T02:03:01;24.15;;;15.10;;
41255;SDS011;26989;45.524;10.938;2023-12-28T02:05:28;23.05;;;13.93;;
41255;SDS011;26989;45.524;10.938;2023-12-28T02:07:56;25.60;;;12.00;;
41255;SDS011;26989;45.524;10.938;2023-12-28T02:10:23;23.83;;;13.35;;
41255;SDS011;26989;45.524;10.938;2023-12-28T02:12:50;22.00;;;12.10;;
41255;SDS011;26989;45.524;10.938;2023-12-28T02:15:19;20.75;;;12.35;;
41255;SDS011;26989;45.524;10.938;2023-12-28T02:18:01;24.10;;;12.02;;
41255;SDS011;26989;45.524;10.938;2023-12-28T02:20:34;23.73;;;13.07;;
41255;SDS011;26989;45.524;10.938;2023-12-28T02:23:02;21.83;;;11.93;;
41255;SDS011;26989;45.524;10.938;2023-12-28T02:25:29;20.02;;;11.85;;
41255;SDS011;26989;45.524;10.938;2023-12-28T02:27:56;24.52;;;12.45;;
41255;SDS011;26989;45.524;10.938;2023-12-28T02:30:23;18.75;;;12.00;;
41255;SDS011;26989;45.524;10.938;2023-12-28T02:32:52;23.20;;;12.68;;
41255;SDS011;26989;45.524;10.938;2023-12-28T02:35:34;21.97;;;13.10;;
41255;SDS011;26989;45.524;10.938;2023-12-28T02:38:06;24.05;;;11.85;;
41255;SDS011;26989;45.524;10.938;2023-12-28T02:40:36;20.40;;;11.85;;
41255;SDS011;26989;45.524;10.938;2023-12-28T02:43:05;21.42;;;12.75;;
41255;SDS011;26989;45.524;10.938;2023-12-28T02:45:33;21.95;;;12.05;;
41255;SDS011;26989;45.524;10.938;2023-12-28T02:48:01;20.17;;;11.30;;
41255;SDS011;26989;45.524;10.938;2023-12-28T02:50:29;20.15;;;11.95;;
41255;SDS011;26989;45.524;10.938;2023-12-28T02:52:57;18.92;;;10.93;;
41255;SDS011;26989;45.524;10.938;2023-12-28T02:55:24;21.30;;;12.23;;
41255;SDS011;26989;45.524;10.938;2023-12-28T02:57:52;26.02;;;12.27;;
41255;SDS011;26989;45.524;10.938;2023-12-28T03:00:26;23.58;;;11.65;;
41255;SDS011;26989;45.524;10.938;2023-12-28T03:02:54;22.75;;;12.00;;
41255;SDS011;26989;45.524;10.938;2023-12-28T03:05:21;20.88;;;12.02;;
41255;SDS011;26989;45.524;10.938;2023-12-28T03:07:48;21.67;;;12.15;;
41255;SDS011;26989;45.524;10.938;2023-12-28T03:10:16;21.23;;;11.63;;
41255;SDS011;26989;45.524;10.938;2023-12-28T03:12:43;20.10;;;12.38;;
41255;SDS011;26989;45.524;10.938;2023-12-28T03:15:10;24.58;;;12.95;;
41255;SDS011;26989;45.524;10.938;2023-12-28T03:17:37;21.73;;;12.30;;
41255;SDS011;26989;45.524;10.938;2023-12-28T03:20:05;21.88;;;12.73;;
41255;SDS011;26989;45.524;10.938;2023-12-28T03:22:32;19.25;;;11.68;;
41255;SDS011;26989;45.524;10.938;2023-12-28T03:24:59;20.23;;;13.15;;
41255;SDS011;26989;45.524;10.938;2023-12-28T03:27:26;21.67;;;12.55;;
41255;SDS011;26989;45.524;10.938;2023-12-28T03:29:53;23.73;;;12.80;;
41255;SDS011;26989;45.524;10.938;2023-12-28T03:32:20;20.70;;;12.10;;
41255;SDS011;26989;45.524;10.938;2023-12-28T03:34:47;23.27;;;11.82;;
41255;SDS011;26989;45.524;10.938;2023-12-28T03:37:14;18.73;;;11.80;;
41255;SDS011;26989;45.524;10.938;2023-12-28T03:39:41;20.98;;;11.43;;
41255;SDS011;26989;45.524;10.938;2023-12-28T03:42:09;20.90;;;11.38;;
41255;SDS011;26989;45.524;10.938;2023-12-28T03:44:36;17.90;;;11.63;;
41255;SDS011;26989;45.524;10.938;2023-12-28T03:47:03;19.63;;;11.82;;
41255;SDS011;26989;45.524;10.938;2023-12-28T03:49:30;20.50;;;12.20;;
41255;SDS011;26989;45.524;10.938;2023-12-28T03:51:57;28.42;;;15.80;;
41255;SDS011;26989;45.524;10.938;2023-12-28T03:54:24;24.05;;;14.88;;
41255;SDS011;26989;45.524;10.938;2023-12-28T03:56:51;21.58;;;12.30;;
41255;SDS011;26989;45.524;10.938;2023-12-28T03:59:18;22.35;;;11.52;;
41255;SDS011;26989;45.524;10.938;2023-12-28T04:01:45;23.23;;;12.50;;
41255;SDS011;26989;45.524;10.938;2023-12-28T04:04:12;22.75;;;12.60;;
41255;SDS011;26989;45.524;10.938;2023-12-28T04:06:39;21.55;;;11.40;;
41255;SDS011;26989;45.524;10.938;2023-12-28T04:09:08;25.67;;;11.98;;
41255;SDS011;26989;45.524;10.938;2023-12-28T04:11:38;23.65;;;12.38;;
41255;SDS011;26989;45.524;10.938;2023-12-28T04:14:05;23.33;;;12.43;;
41255;SDS011;26989;45.524;10.938;2023-12-28T04:16:31;32.33;;;15.18;;
41255;SDS011;26989;45.524;10.938;2023-12-28T04:18:58;31.33;;;18.13;;
41255;SDS011;26989;45.524;10.938;2023-12-28T04:21:25;35.47;;;20.67;;
41255;SDS011;26989;45.524;10.938;2023-12-28T04:23:52;30.90;;;17.90;;
41255;SDS011;26989;45.524;10.938;2023-12-28T04:26:19;29.63;;;16.65;;
41255;SDS011;26989;45.524;10.938;2023-12-28T04:28:49;35.85;;;18.77;;
41255;SDS011;26989;45.524;10.938;2023-12-28T04:31:16;30.45;;;18.77;;
41255;SDS011;26989;45.524;10.938;2023-12-28T04:33:43;41.63;;;21.75;;
41255;SDS011;26989;45.524;10.938;2023-12-28T04:36:10;31.13;;;17.25;;
41255;SDS011;26989;45.524;10.938;2023-12-28T04:38:37;25.35;;;14.93;;
41255;SDS011;26989;45.524;10.938;2023-12-28T04:41:05;21.77;;;14.27;;
41255;SDS011;26989;45.524;10.938;2023-12-28T04:43:32;29.48;;;16.02;;
41255;SDS011;26989;45.524;10.938;2023-12-28T04:46:02;31.25;;;16.45;;
41255;SDS011;26989;45.524;10.938;2023-12-28T04:48:34;28.13;;;15.82;;
41255;SDS011;26989;45.524;10.938;2023-12-28T04:51:04;27.30;;;15.15;;
41255;SDS011;26989;45.524;10.938;2023-12-28T04:53:31;25.15;;;15.93;;
41255;SDS011;26989;45.524;10.938;2023-12-28T04:55:58;27.48;;;16.67;;
41255;SDS011;26989;45.524;10.938;2023-12-28T04:58:26;25.38;;;16.42;;
41255;SDS011;26989;45.524;10.938;2023-12-28T05:00:53;27.00;;;16.17;;
41255;SDS011;26989;45.524;10.938;2023-12-28T05:03:20;29.25;;;16.40;;
41255;SDS011;26989;45.524;10.938;2023-12-28T05:05:47;28.08;;;14.93;;
41255;SDS011;26989;45.524;10.938;2023-12-28T05:08:15;25.00;;;13.73;;
41255;SDS011;26989;45.524;10.938;2023-12-28T05:10:48;26.48;;;14.20;;
41255;SDS011;26989;45.524;10.938;2023-12-28T05:13:18;27.80;;;14.38;;
41255;SDS011;26989;45.524;10.938;2023-12-28T05:15:48;27.70;;;14.35;;
41255;SDS011;26989;45.524;10.938;2023-12-28T05:18:20;27.02;;;14.63;;
41255;SDS011;26989;45.524;10.938;2023-12-28T05:20:49;23.13;;;13.18;;
41255;SDS011;26989;45.524;10.938;2023-12-28T05:23:16;23.45;;;13.65;;
41255;SDS011;26989;45.524;10.938;2023-12-28T05:25:49;23.58;;;13.02;;
41255;SDS011;26989;45.524;10.938;2023-12-28T05:28:17;27.63;;;14.45;;
41255;SDS011;26989;45.524;10.938;2023-12-28T05:30:44;26.50;;;15.48;;
41255;SDS011;26989;45.524;10.938;2023-12-28T05:33:26;28.90;;;16.20;;
41255;SDS011;26989;45.524;10.938;2023-12-28T05:35:53;31.45;;;16.67;;
41255;SDS011;26989;45.524;10.938;2023-12-28T05:38:20;25.33;;;15.75;;
41255;SDS011;26989;45.524;10.938;2023-12-28T05:40:47;39.45;;;21.10;;
41255;SDS011;26989;45.524;10.938;2023-12-28T05:43:14;34.22;;;19.42;;
41255;SDS011;26989;45.524;10.938;2023-12-28T05:45:51;36.05;;;19.75;;
41255;SDS011;26989;45.524;10.938;2023-12-28T05:48:50;38.60;;;20.77;;
41255;SDS011;26989;45.524;10.938;2023-12-28T05:51:17;39.30;;;22.00;;
41255;SDS011;26989;45.524;10.938;2023-12-28T05:53:45;42.58;;;22.55;;
41255;SDS011;26989;45.524;10.938;2023-12-28T05:56:12;48.30;;;24.00;;
41255;SDS011;26989;45.524;10.938;2023-12-28T05:58:39;42.95;;;24.40;;
41255;SDS011;26989;45.524;10.938;2023-12-28T06:01:07;41.03;;;24.67;;
41255;SDS011;26989;45.524;10.938;2023-12-28T06:03:34;41.95;;;25.05;;
41255;SDS011;26989;45.524;10.938;2023-12-28T06:06:01;51.65;;;25.77;;
41255;SDS011;26989;45.524;10.938;2023-12-28T06:08:28;49.63;;;26.77;;
41255;SDS011;26989;45.524;10.938;2023-12-28T06:11:18;48.30;;;27.50;;
41255;SDS011;26989;45.524;10.938;2023-12-28T06:13:49;47.10;;;26.88;;
41255;SDS011;26989;45.524;10.938;2023-12-28T06:16:16;45.83;;;28.02;;
41255;SDS011;26989;45.524;10.938;2023-12-28T06:18:43;52.28;;;27.98;;
41255;SDS011;26989;45.524;10.938;2023-12-28T06:21:10;50.15;;;28.70;;
41255;SDS011;26989;45.524;10.938;2023-12-28T06:23:38;49.25;;;28.63;;
41255;SDS011;26989;45.524;10.938;2023-12-28T06:26:05;52.78;;;30.65;;
41255;SDS011;26989;45.524;10.938;2023-12-28T06:28:33;58.05;;;32.40;;
41255;SDS011;26989;45.524;10.938;2023-12-28T06:31:00;58.00;;;30.52;;
41255;SDS011;26989;45.524;10.938;2023-12-28T06:33:27;59.40;;;31.23;;
41255;SDS011;26989;45.524;10.938;2023-12-28T06:35:55;57.15;;;31.20;;
41255;SDS011;26989;45.524;10.938;2023-12-28T06:38:24;51.17;;;31.45;;
41255;SDS011;26989;45.524;10.938;2023-12-28T06:40:51;55.47;;;31.58;;
41255;SDS011;26989;45.524;10.938;2023-12-28T06:43:18;54.53;;;29.52;;
41255;SDS011;26989;45.524;10.938;2023-12-28T06:45:45;57.78;;;30.52;;
41255;SDS011;26989;45.524;10.938;2023-12-28T06:48:13;58.17;;;29.65;;
41255;SDS011;26989;45.524;10.938;2023-12-28T06:50:40;60.42;;;31.45;;
41255;SDS011;26989;45.524;10.938;2023-12-28T06:53:07;50.63;;;30.80;;
41255;SDS011;26989;45.524;10.938;2023-12-28T06:55:34;49.65;;;29.48;;
41255;SDS011;26989;45.524;10.938;2023-12-28T06:58:01;56.03;;;29.27;;
41255;SDS011;26989;45.524;10.938;2023-12-28T07:00:29;51.90;;;29.77;;
41255;SDS011;26989;45.524;10.938;2023-12-28T07:02:57;53.60;;;29.05;;
41255;SDS011;26989;45.524;10.938;2023-12-28T07:05:24;44.55;;;25.60;;
41255;SDS011;26989;45.524;10.938;2023-12-28T07:07:51;47.85;;;27.38;;
41255;SDS011;26989;45.524;10.938;2023-12-28T07:10:18;41.63;;;24.50;;
41255;SDS011;26989;45.524;10.938;2023-12-28T07:12:45;43.13;;;25.27;;
41255;SDS011;26989;45.524;10.938;2023-12-28T07:15:12;44.67;;;25.55;;
41255;SDS011;26989;45.524;10.938;2023-12-28T07:17:41;43.05;;;25.45;;
41255;SDS011;26989;45.524;10.938;2023-12-28T07:20:09;44.28;;;24.50;;
41255;SDS011;26989;45.524;10.938;2023-12-28T07:22:39;45.33;;;24.13;;
41255;SDS011;26989;45.524;10.938;2023-12-28T07:25:06;51.30;;;25.55;;
41255;SDS011;26989;45.524;10.938;2023-12-28T07:27:34;62.30;;;30.42;;
41255;SDS011;26989;45.524;10.938;2023-12-28T07:30:01;56.15;;;32.60;;
41255;SDS011;26989;45.524;10.938;2023-12-28T07:32:28;59.67;;;32.10;;
41255;SDS011;26989;45.524;10.938;2023-12-28T07:34:56;67.80;;;34.58;;
41255;SDS011;26989;45.524;10.938;2023-12-28T07:37:22;60.03;;;33.47;;
41255;SDS011;26989;45.524;10.938;2023-12-28T07:39:50;59.58;;;31.17;;
41255;SDS011;26989;45.524;10.938;2023-12-28T07:42:20;62.20;;;32.33;;
41255;SDS011;26989;45.524;10.938;2023-12-28T07:44:52;62.58;;;32.28;;
41255;SDS011;26989;45.524;10.938;2023-12-28T07:47:19;59.28;;;31.20;;
41255;SDS011;26989;45.524;10.938;2023-12-28T07:49:47;58.05;;;32.63;;
41255;SDS011;26989;45.524;10.938;2023-12-28T07:52:21;59.60;;;32.03;;
41255;SDS011;26989;45.524;10.938;2023-12-28T07:54:48;54.70;;;31.83;;
41255;SDS011;26989;45.524;10.938;2023-12-28T07:57:20;54.08;;;31.20;;
41255;SDS011;26989;45.524;10.938;2023-12-28T07:59:50;59.92;;;31.15;;
41255;SDS011;26989;45.524;10.938;2023-12-28T08:02:21;51.47;;;29.38;;
41255;SDS011;26989;45.524;10.938;2023-12-28T08:04:57;50.40;;;29.20;;
41255;SDS011;26989;45.524;10.938;2023-12-28T08:07:29;58.95;;;33.60;;
41255;SDS011;26989;45.524;10.938;2023-12-28T08:09:59;61.28;;;36.00;;
41255;SDS011;26989;45.524;10.938;2023-12-28T08:12:33;60.15;;;34.67;;
41255;SDS011;26989;45.524;10.938;2023-12-28T08:15:00;56.55;;;32.25;;
41255;SDS011;26989;45.524;10.938;2023-12-28T08:17:28;54.38;;;32.17;;
41255;SDS011;26989;45.524;10.938;2023-12-28T08:20:04;87.22;;;39.60;;
41255;SDS011;26989;45.524;10.938;2023-12-28T08:22:53;64.25;;;35.22;;
41255;SDS011;26989;45.524;10.938;2023-12-28T08:25:43;55.55;;;32.75;;
41255;SDS011;26989;45.524;10.938;2023-12-28T08:28:10;66.63;;;34.30;;
41255;SDS011;26989;45.524;10.938;2023-12-28T08:30:38;59.28;;;33.58;;
41255;SDS011;26989;45.524;10.938;2023-12-28T08:33:05;67.28;;;34.15;;
41255;SDS011;26989;45.524;10.938;2023-12-28T08:35:32;61.10;;;34.22;;
41255;SDS011;26989;45.524;10.938;2023-12-28T08:37:59;56.45;;;32.10;;
41255;SDS011;26989;45.524;10.938;2023-12-28T08:40:26;53.67;;;31.77;;
41255;SDS011;26989;45.524;10.938;2023-12-28T08:42:53;60.67;;;32.65;;
41255;SDS011;26989;45.524;10.938;2023-12-28T08:45:20;69.90;;;34.97;;
41255;SDS011;26989;45.524;10.938;2023-12-28T08:47:47;65.63;;;34.58;;
41255;SDS011;26989;45.524;10.938;2023-12-28T08:50:14;58.33;;;33.63;;
41255;SDS011;26989;45.524;10.938;2023-12-28T08:52:41;60.95;;;35.28;;
41255;SDS011;26989;45.524;10.938;2023-12-28T08:55:08;63.50;;;36.13;;
41255;SDS011;26989;45.524;10.938;2023-12-28T08:57:35;63.63;;;35.10;;
41255;SDS011;26989;45.524;10.938;2023-12-28T09:00:08;75.63;;;34.45;;
41255;SDS011;26989;45.524;10.938;2023-12-28T09:02:36;56.88;;;34.92;;
41255;SDS011;26989;45.524;10.938;2023-12-28T09:05:05;67.63;;;35.50;;
41255;SDS011;26989;45.524;10.938;2023-12-28T09:07:36;57.75;;;33.17;;
41255;SDS011;26989;45.524;10.938;2023-12-28T09:10:10;64.28;;;34.97;;
41255;SDS011;26989;45.524;10.938;2023-12-28T09:12:39;75.55;;;37.33;;
41255;SDS011;26989;45.524;10.938;2023-12-28T09:15:07;61.42;;;36.30;;
41255;SDS011;26989;45.524;10.938;2023-12-28T09:17:34;69.13;;;36.05;;
41255;SDS011;26989;45.524;10.938;2023-12-28T09:20:02;63.60;;;38.22;;
41255;SDS011;26989;45.524;10.938;2023-12-28T09:22:30;62.53;;;36.45;;
41255;SDS011;26989;45.524;10.938;2023-12-28T09:24:57;64.22;;;35.47;;
41255;SDS011;26989;45.524;10.938;2023-12-28T09:27:24;59.80;;;36.28;;
41255;SDS011;26989;45.524;10.938;2023-12-28T09:29:51;59.95;;;34.15;;
41255;SDS011;26989;45.524;10.938;2023-12-28T09:32:18;60.67;;;34.25;;
41255;SDS011;26989;45.524;10.938;2023-12-28T09:34:45;61.35;;;33.53;;
41255;SDS011;26989;45.524;10.938;2023-12-28T09:37:13;58.38;;;35.50;;
41255;SDS011;26989;45.524;10.938;2023-12-28T09:39:39;55.33;;;33.45;;
41255;SDS011;26989;45.524;10.938;2023-12-28T09:42:25;65.50;;;34.88;;
41255;SDS011;26989;45.524;10.938;2023-12-28T09:44:55;63.10;;;37.20;;
41255;SDS011;26989;45.524;10.938;2023-12-28T09:47:23;65.18;;;34.13;;
41255;SDS011;26989;45.524;10.938;2023-12-28T09:49:50;64.97;;;33.83;;
41255;SDS011;26989;45.524;10.938;2023-12-28T09:52:17;58.63;;;34.05;;
41255;SDS011;26989;45.524;10.938;2023-12-28T09:54:44;59.80;;;34.22;;
41255;SDS011;26989;45.524;10.938;2023-12-28T09:57:11;64.20;;;34.92;;
41255;SDS011;26989;45.524;10.938;2023-12-28T09:59:38;57.78;;;33.45;;
41255;SDS011;26989;45.524;10.938;2023-12-28T10:02:09;61.30;;;35.90;;
41255;SDS011;26989;45.524;10.938;2023-12-28T10:04:37;65.82;;;37.83;;
41255;SDS011;26989;45.524;10.938;2023-12-28T10:07:04;63.50;;;38.17;;
41255;SDS011;26989;45.524;10.938;2023-12-28T10:09:31;64.00;;;37.60;;
41255;SDS011;26989;45.524;10.938;2023-12-28T10:11:59;64.80;;;36.83;;
41255;SDS011;26989;45.524;10.938;2023-12-28T10:14:26;68.20;;;37.60;;
41255;SDS011;26989;45.524;10.938;2023-12-28T10:16:53;75.53;;;38.78;;
41255;SDS011;26989;45.524;10.938;2023-12-28T10:19:23;66.00;;;37.70;;
41255;SDS011;26989;45.524;10.938;2023-12-28T10:21:50;67.18;;;39.95;;
41255;SDS011;26989;45.524;10.938;2023-12-28T10:24:17;68.80;;;38.53;;
41255;SDS011;26989;45.524;10.938;2023-12-28T10:26:44;60.33;;;35.38;;
41255;SDS011;26989;45.524;10.938;2023-12-28T10:29:12;70.40;;;37.80;;
41255;SDS011;26989;45.524;10.938;2023-12-28T10:31:43;61.78;;;35.90;;
41255;SDS011;26989;45.524;10.938;2023-12-28T10:34:11;66.30;;;39.33;;
41255;SDS011;26989;45.524;10.938;2023-12-28T10:36:39;68.55;;;39.63;;
41255;SDS011;26989;45.524;10.938;2023-12-28T10:39:09;67.95;;;40.80;;
41255;SDS011;26989;45.524;10.938;2023-12-28T10:41:40;70.53;;;38.30;;
41255;SDS011;26989;45.524;10.938;2023-12-28T10:44:10;64.45;;;38.15;;
41255;SDS011;26989;45.524;10.938;2023-12-28T10:46:40;70.32;;;41.80;;
41255;SDS011;26989;45.524;10.938;2023-12-28T10:49:12;71.47;;;39.55;;
41255;SDS011;26989;45.524;10.938;2023-12-28T10:51:43;69.63;;;39.28;;
41255;SDS011;26989;45.524;10.938;2023-12-28T10:57:09;63.72;;;39.47;;
41255;SDS011;26989;45.524;10.938;2023-12-28T11:00:00;69.82;;;39.53;;
41255;SDS011;26989;45.524;10.938;2023-12-28T11:02:46;70.65;;;38.90;;
41255;SDS011;26989;45.524;10.938;2023-12-28T11:05:21;69.20;;;39.13;;
41255;SDS011;26989;45.524;10.938;2023-12-28T11:07:49;71.20;;;39.63;;
41255;SDS011;26989;45.524;10.938;2023-12-28T11:10:20;71.75;;;38.70;;
41255;SDS011;26989;45.524;10.938;2023-12-28T11:12:53;70.50;;;39.42;;
41255;SDS011;26989;45.524;10.938;2023-12-28T11:15:23;66.68;;;39.80;;
41255;SDS011;26989;45.524;10.938;2023-12-28T11:17:50;69.32;;;39.70;;
41255;SDS011;26989;45.524;10.938;2023-12-28T11:20:17;71.57;;;41.70;;
41255;SDS011;26989;45.524;10.938;2023-12-28T11:22:45;72.80;;;41.92;;
41255;SDS011;26989;45.524;10.938;2023-12-28T11:25:16;73.47;;;40.47;;
41255;SDS011;26989;45.524;10.938;2023-12-28T11:27:45;78.30;;;45.03;;
41255;SDS011;26989;45.524;10.938;2023-12-28T11:30:13;68.05;;;42.28;;
41255;SDS011;26989;45.524;10.938;2023-12-28T11:32:41;70.63;;;40.60;;
41255;SDS011;26989;45.524;10.938;2023-12-28T11:35:13;78.55;;;42.13;;
41255;SDS011;26989;45.524;10.938;2023-12-28T11:37:46;69.82;;;42.35;;
41255;SDS011;26989;45.524;10.938;2023-12-28T11:40:18;73.15;;;43.97;;
41255;SDS011;26989;45.524;10.938;2023-12-28T11:42:50;74.03;;;44.28;;
41255;SDS011;26989;45.524;10.938;2023-12-28T11:45:19;79.78;;;44.53;;
41255;SDS011;26989;45.524;10.938;2023-12-28T11:47:58;83.60;;;45.63;;
41255;SDS011;26989;45.524;10.938;2023-12-28T11:50:26;81.22;;;45.67;;
41255;SDS011;26989;45.524;10.938;2023-12-28T11:52:53;82.90;;;46.08;;
41255;SDS011;26989;45.524;10.938;2023-12-28T11:55:21;75.70;;;47.03;;
41255;SDS011;26989;45.524;10.938;2023-12-28T11:57:49;83.95;;;47.13;;
41255;SDS011;26989;45.524;10.938;2023-12-28T12:00:16;79.75;;;45.80;;
41255;SDS011;26989;45.524;10.938;2023-12-28T12:02:44;80.07;;;44.22;;
41255;SDS011;26989;45.524;10.938;2023-12-28T12:05:16;78.00;;;45.88;;
41255;SDS011;26989;45.524;10.938;2023-12-28T12:07:44;76.55;;;46.20;;
41255;SDS011;26989;45.524;10.938;2023-12-28T12:10:14;78.78;;;45.75;;
41255;SDS011;26989;45.524;10.938;2023-12-28T12:12:42;78.75;;;47.30;;
41255;SDS011;26989;45.524;10.938;2023-12-28T12:15:10;77.70;;;45.22;;
41255;SDS011;26989;45.524;10.938;2023-12-28T12:17:38;82.22;;;44.88;;
41255;SDS011;26989;45.524;10.938;2023-12-28T12:20:06;84.28;;;47.97;;
41255;SDS011;26989;45.524;10.938;2023-12-28T12:22:35;79.28;;;45.63;;
41255;SDS011;26989;45.524;10.938;2023-12-28T12:25:03;77.70;;;45.22;;
41255;SDS011;26989;45.524;10.938;2023-12-28T12:27:31;78.53;;;46.67;;
41255;SDS011;26989;45.524;10.938;2023-12-28T12:29:58;87.05;;;44.70;;
41255;SDS011;26989;45.524;10.938;2023-12-28T12:32:25;75.28;;;44.03;;
41255;SDS011;26989;45.524;10.938;2023-12-28T12:34:53;75.05;;;44.28;;
41255;SDS011;26989;45.524;10.938;2023-12-28T12:37:20;70.18;;;42.67;;
41255;SDS011;26989;45.524;10.938;2023-12-28T12:39:47;72.63;;;42.65;;
41255;SDS011;26989;45.524;10.938;2023-12-28T12:42:15;78.90;;;45.78;;
41255;SDS011;26989;45.524;10.938;2023-12-28T12:44:43;75.18;;;43.38;;
41255;SDS011;26989;45.524;10.938;2023-12-28T12:47:09;80.03;;;44.70;;
41255;SDS011;26989;45.524;10.938;2023-12-28T12:49:37;71.70;;;41.75;;
41255;SDS011;26989;45.524;10.938;2023-12-28T12:52:06;70.60;;;42.00;;
41255;SDS011;26989;45.524;10.938;2023-12-28T12:54:34;79.75;;;43.20;;
41255;SDS011;26989;45.524;10.938;2023-12-28T12:57:01;76.20;;;42.58;;
41255;SDS011;26989;45.524;10.938;2023-12-28T12:59:29;72.95;;;42.45;;
41255;SDS011;26989;45.524;10.938;2023-12-28T13:01:56;70.88;;;42.00;;
41255;SDS011;26989;45.524;10.938;2023-12-28T13:04:23;69.40;;;41.53;;
41255;SDS011;26989;45.524;10.938;2023-12-28T13:06:50;69.47;;;40.47;;
41255;SDS011;26989;45.524;10.938;2023-12-28T13:09:17;77.32;;;42.95;;
41255;SDS011;26989;45.524;10.938;2023-12-28T13:11:44;67.60;;;40.35;;
41255;SDS011;26989;45.524;10.938;2023-12-28T13:14:15;71.97;;;42.28;;
41255;SDS011;26989;45.524;10.938;2023-12-28T13:16:42;66.55;;;40.25;;
41255;SDS011;26989;45.524;10.938;2023-12-28T13:19:09;69.22;;;42.58;;
41255;SDS011;26989;45.524;10.938;2023-12-28T13:21:36;72.93;;;40.67;;
41255;SDS011;26989;45.524;10.938;2023-12-28T13:24:03;67.07;;;40.63;;
41255;SDS011;26989;45.524;10.938;2023-12-28T13:26:32;73.70;;;39.63;;
41255;SDS011;26989;45.524;10.938;2023-12-28T13:28:59;69.20;;;40.47;;
41255;SDS011;26989;45.524;10.938;2023-12-28T13:31:28;66.07;;;39.13;;
41255;SDS011;26989;45.524;10.938;2023-12-28T13:33:55;68.45;;;39.08;;
41255;SDS011;26989;45.524;10.938;2023-12-28T13:36:22;66.70;;;39.42;;
41255;SDS011;26989;45.524;10.938;2023-12-28T13:38:49;67.80;;;39.90;;
41255;SDS011;26989;45.524;10.938;2023-12-28T13:41:16;72.88;;;40.30;;
41255;SDS011;26989;45.524;10.938;2023-12-28T13:43:43;68.15;;;39.58;;
41255;SDS011;26989;45.524;10.938;2023-12-28T13:46:10;68.28;;;38.30;;
41255;SDS011;26989;45.524;10.938;2023-12-28T13:48:37;66.32;;;39.15;;
41255;SDS011;26989;45.524;10.938;2023-12-28T13:51:06;73.90;;;39.90;;
41255;SDS011;26989;45.524;10.938;2023-12-28T13:53:33;71.47;;;39.00;;
41255;SDS011;26989;45.524;10.938;2023-12-28T13:56:07;69.28;;;39.13;;
41255;SDS011;26989;45.524;10.938;2023-12-28T13:58:36;72.80;;;38.65;;
41255;SDS011;26989;45.524;10.938;2023-12-28T14:01:03;62.63;;;37.88;;
41255;SDS011;26989;45.524;10.938;2023-12-28T14:03:30;64.63;;;38.10;;
41255;SDS011;26989;45.524;10.938;2023-12-28T14:05:57;66.68;;;37.75;;
41255;SDS011;26989;45.524;10.938;2023-12-28T14:08:24;64.72;;;37.38;;
41255;SDS011;26989;45.524;10.938;2023-12-28T14:10:51;67.18;;;37.60;;
41255;SDS011;26989;45.524;10.938;2023-12-28T14:13:18;68.85;;;39.15;;
41255;SDS011;26989;45.524;10.938;2023-12-28T14:15:46;75.53;;;39.85;;
41255;SDS011;26989;45.524;10.938;2023-12-28T14:18:13;68.13;;;38.08;;